createdAt,value
2018-12-13T00:00:43.919Z,0.00
2018-12-13T00:01:43.897Z,0.00
2018-12-13T00:02:43.886Z,0.00
2018-12-13T00:03:43.875Z,0.00
2018-12-13T00:04:43.876Z,0.00
2018-12-13T00:05:43.872Z,0.00
2018-12-13T00:06:43.845Z,0.00
2018-12-13T00:07:43.835Z,0.00
2018-12-13T00:08:43.824Z,0.00
2018-12-13T00:09:43.827Z,0.00
2018-12-13T00:10:43.822Z,0.00
2018-12-13T00:11:43.793Z,0.00
2018-12-13T00:12:43.783Z,0.00
2018-12-13T00:13:43.773Z,0.00
2018-12-13T00:14:43.782Z,0.00
2018-12-13T00:15:43.750Z,0.00
2018-12-13T00:16:43.758Z,0.00
2018-12-13T00:17:43.730Z,0.00
2018-12-13T00:18:43.722Z,0.00
2018-12-13T00:19:43.733Z,0.00
2018-12-13T00:20:43.703Z,0.00
2018-12-13T00:21:43.691Z,0.00
2018-12-13T00:22:43.697Z,0.00
2018-12-13T00:23:43.672Z,0.00
2018-12-13T00:24:43.660Z,0.00
2018-12-13T00:25:43.660Z,0.00
2018-12-13T00:26:43.636Z,0.00
2018-12-13T00:27:43.625Z,0.00
2018-12-13T00:28:43.631Z,0.00
2018-12-13T00:29:43.607Z,0.00
2018-12-13T00:30:43.610Z,0.00
2018-12-13T00:31:43.584Z,0.00
2018-12-13T00:32:43.578Z,0.00
2018-12-13T00:33:43.593Z,0.00
2018-12-13T00:34:43.554Z,0.00
2018-12-13T00:35:43.556Z,0.00
2018-12-13T00:36:43.531Z,0.00
2018-12-13T00:37:43.527Z,0.00
2018-12-13T00:38:43.510Z,0.00
2018-12-13T00:39:43.518Z,0.00
2018-12-13T00:40:43.505Z,0.00
2018-12-13T00:41:43.482Z,0.00
2018-12-13T00:42:43.470Z,0.00
2018-12-13T00:43:43.460Z,0.00
2018-12-13T00:44:43.446Z,0.00
2018-12-13T00:45:43.482Z,0.00
2018-12-13T00:46:43.428Z,0.00
2018-12-13T00:47:43.416Z,0.00
2018-12-13T00:48:43.409Z,0.00
2018-12-13T00:49:43.401Z,0.00
2018-12-13T00:50:43.400Z,0.00
2018-12-13T00:51:43.398Z,0.00
2018-12-13T00:52:43.365Z,0.00
2018-12-13T00:53:43.353Z,0.00
2018-12-13T00:54:43.343Z,0.00
2018-12-13T00:55:43.349Z,0.00
2018-12-13T00:56:43.326Z,0.00
2018-12-13T00:57:43.329Z,0.00
2018-12-13T00:58:43.302Z,0.00
2018-12-13T00:59:43.291Z,0.00
2018-12-13T01:00:43.298Z,0.00
2018-12-13T01:01:43.272Z,0.00
2018-12-13T01:02:43.261Z,0.00
2018-12-13T01:03:43.257Z,0.00
2018-12-13T01:04:43.241Z,0.00
2018-12-13T01:05:43.243Z,0.00
2018-12-13T01:06:46.002Z,0.00
2018-12-13T01:07:43.208Z,0.00
2018-12-13T01:08:43.204Z,0.00
2018-12-13T01:09:43.204Z,0.00
2018-12-13T01:10:43.192Z,0.00
2018-12-13T01:11:43.169Z,0.00
2018-12-13T01:12:43.155Z,0.00
2018-12-13T01:13:43.145Z,0.00
2018-12-13T01:14:43.137Z,0.00
2018-12-13T01:15:43.171Z,0.00
2018-12-13T01:16:43.115Z,0.00
2018-12-13T01:17:43.109Z,0.00
2018-12-13T01:18:43.092Z,0.00
2018-12-13T01:19:43.082Z,0.00
2018-12-13T01:20:43.086Z,0.00
2018-12-13T01:21:43.075Z,0.00
2018-12-13T01:22:43.049Z,0.00
2018-12-13T01:23:43.040Z,0.00
2018-12-13T01:24:43.029Z,0.00
2018-12-13T01:25:43.035Z,0.00
2018-12-13T01:26:43.010Z,0.00
2018-12-13T01:27:43.024Z,0.00
2018-12-13T01:28:42.989Z,0.00
2018-12-13T01:29:42.978Z,0.00
2018-12-13T01:30:42.982Z,0.00
2018-12-13T01:31:42.960Z,0.00
2018-12-13T01:32:42.945Z,0.00
2018-12-13T01:33:42.964Z,0.00
2018-12-13T01:34:42.927Z,0.00
2018-12-13T01:35:42.931Z,0.00
2018-12-13T01:36:42.908Z,0.00
2018-12-13T01:37:42.896Z,0.00
2018-12-13T01:38:42.886Z,0.00
2018-12-13T01:39:42.882Z,0.00
2018-12-13T01:40:42.876Z,0.00
2018-12-13T01:41:42.856Z,0.00
2018-12-13T01:42:42.843Z,0.00
2018-12-13T01:43:42.830Z,0.00
2018-12-13T01:44:42.821Z,0.00
2018-12-13T01:45:42.867Z,0.00
2018-12-13T01:46:42.799Z,0.00
2018-12-13T01:47:42.788Z,0.00
2018-12-13T01:48:42.778Z,0.00
2018-12-13T01:49:42.766Z,0.00
2018-12-13T01:50:42.771Z,0.00
2018-12-13T01:51:42.760Z,0.00
2018-12-13T01:52:42.736Z,0.00
2018-12-13T01:53:42.725Z,0.00
2018-12-13T01:54:42.715Z,0.00
2018-12-13T01:55:42.703Z,0.00
2018-12-13T01:56:42.708Z,0.00
2018-12-13T01:57:42.712Z,0.00
2018-12-13T01:58:42.672Z,0.00
2018-12-13T01:59:42.663Z,0.00
2018-12-13T02:00:42.653Z,0.00
2018-12-13T02:01:42.661Z,0.00
2018-12-13T02:02:42.635Z,0.00
2018-12-13T02:03:42.647Z,0.00
2018-12-13T02:04:42.610Z,0.00
2018-12-13T02:05:42.601Z,0.00
2018-12-13T02:06:42.609Z,0.00
2018-12-13T02:07:42.581Z,0.00
2018-12-13T02:08:42.582Z,0.00
2018-12-13T02:09:42.559Z,0.00
2018-12-13T02:10:42.554Z,0.00
2018-12-13T02:11:42.554Z,0.00
2018-12-13T02:12:42.530Z,0.00
2018-12-13T02:13:42.517Z,0.00
2018-12-13T02:14:42.506Z,0.00
2018-12-13T02:15:42.511Z,0.00
2018-12-13T02:16:42.503Z,0.00
2018-12-13T02:17:42.476Z,0.00
2018-12-13T02:18:42.467Z,0.00
2018-12-13T02:19:42.460Z,0.00
2018-12-13T02:20:42.477Z,0.00
2018-12-13T02:21:42.465Z,0.00
2018-12-13T02:22:42.425Z,0.00
2018-12-13T02:23:42.416Z,0.00
2018-12-13T02:24:42.404Z,0.00
2018-12-13T02:25:42.398Z,0.00
2018-12-13T02:26:42.398Z,0.00
2018-12-13T02:27:42.383Z,0.00
2018-12-13T02:28:42.362Z,0.00
2018-12-13T02:29:42.351Z,0.00
2018-12-13T02:30:42.341Z,0.00
2018-12-13T02:31:42.346Z,0.00
2018-12-13T02:32:42.320Z,0.00
2018-12-13T02:33:42.322Z,0.00
2018-12-13T02:34:42.300Z,0.00
2018-12-13T02:35:42.289Z,0.00
2018-12-13T02:36:42.293Z,0.00
2018-12-13T02:37:42.267Z,0.00
2018-12-13T02:38:42.263Z,0.00
2018-12-13T02:39:42.247Z,0.00
2018-12-13T02:40:42.249Z,0.00
2018-12-13T02:41:42.240Z,0.00
2018-12-13T02:42:42.216Z,0.00
2018-12-13T02:43:42.209Z,0.00
2018-12-13T02:44:42.195Z,0.00
2018-12-13T02:45:42.184Z,0.00
2018-12-13T02:46:42.204Z,0.00
2018-12-13T02:47:42.166Z,0.00
2018-12-13T02:48:42.152Z,0.00
2018-12-13T02:49:42.142Z,0.00
2018-12-13T02:50:42.136Z,0.00
2018-12-13T02:51:42.141Z,0.00
2018-12-13T02:52:42.132Z,0.00
2018-12-13T02:53:42.102Z,0.00
2018-12-13T02:54:42.090Z,0.00
2018-12-13T02:55:42.083Z,0.00
2018-12-13T02:56:42.085Z,0.00
2018-12-13T02:57:42.062Z,0.00
2018-12-13T02:58:42.067Z,0.00
2018-12-13T02:59:42.041Z,0.00
2018-12-13T03:00:42.030Z,0.00
2018-12-13T03:01:42.037Z,0.00
2018-12-13T03:02:42.012Z,0.00
2018-12-13T03:03:42.000Z,0.00
2018-12-13T03:04:42.011Z,0.00
2018-12-13T03:05:41.979Z,0.00
2018-12-13T03:06:41.986Z,0.00
2018-12-13T03:07:41.955Z,0.00
2018-12-13T03:08:41.953Z,0.00
2018-12-13T03:09:41.938Z,0.00
2018-12-13T03:10:41.937Z,0.00
2018-12-13T03:11:41.931Z,0.00
2018-12-13T03:12:41.907Z,0.00
2018-12-13T03:13:41.899Z,0.00
2018-12-13T03:14:41.889Z,0.00
2018-12-13T03:15:41.878Z,0.00
2018-12-13T03:16:41.902Z,0.00
2018-12-13T03:17:41.855Z,0.00
2018-12-13T03:18:41.844Z,0.00
2018-12-13T03:19:41.835Z,0.00
2018-12-13T03:20:41.823Z,0.00
2018-12-13T03:21:41.829Z,0.00
2018-12-13T03:22:41.829Z,0.00
2018-12-13T03:23:41.793Z,0.00
2018-12-13T03:24:41.784Z,0.00
2018-12-13T03:25:41.772Z,0.00
2018-12-13T03:26:41.777Z,0.00
2018-12-13T03:27:41.752Z,0.00
2018-12-13T03:28:41.754Z,0.00
2018-12-13T03:29:41.732Z,0.00
2018-12-13T03:30:41.727Z,0.00
2018-12-13T03:31:41.712Z,0.00
2018-12-13T03:32:41.714Z,0.00
2018-12-13T03:33:41.696Z,0.00
2018-12-13T03:34:41.697Z,0.00
2018-12-13T03:35:41.669Z,0.00
2018-12-13T03:36:41.659Z,0.00
2018-12-13T03:37:41.663Z,0.00
2018-12-13T03:38:41.640Z,0.00
2018-12-13T03:39:41.629Z,0.00
2018-12-13T03:40:41.630Z,0.00
2018-12-13T03:41:41.605Z,0.00
2018-12-13T03:42:41.623Z,0.00
2018-12-13T03:43:41.585Z,0.00
2018-12-13T03:44:41.576Z,0.00
2018-12-13T03:45:41.563Z,0.00
2018-12-13T03:46:41.569Z,0.00
2018-12-13T03:47:41.567Z,0.00
2018-12-13T03:48:41.531Z,0.00
2018-12-13T03:49:41.522Z,0.00
2018-12-13T03:50:41.516Z,0.00
2018-12-13T03:51:41.499Z,0.00
2018-12-13T03:52:41.507Z,0.00
2018-12-13T03:53:41.487Z,0.00
2018-12-13T03:54:41.481Z,0.00
2018-12-13T03:55:41.460Z,0.00
2018-12-13T03:56:41.452Z,0.00
2018-12-13T03:57:41.452Z,0.00
2018-12-13T03:58:41.428Z,0.00
2018-12-13T03:59:41.429Z,0.00
2018-12-13T04:00:41.407Z,0.00
2018-12-13T04:01:41.394Z,0.00
2018-12-13T04:02:41.399Z,0.00
2018-12-13T04:03:41.374Z,0.00
2018-12-13T04:04:41.364Z,0.00
2018-12-13T04:05:41.366Z,0.00
2018-12-13T04:06:41.349Z,0.00
2018-12-13T04:07:41.349Z,0.00
2018-12-13T04:08:41.329Z,0.00
2018-12-13T04:09:41.312Z,0.00
2018-12-13T04:10:41.304Z,0.00
2018-12-13T04:11:41.315Z,0.00
2018-12-13T04:12:41.296Z,0.00
2018-12-13T04:13:41.273Z,0.00
2018-12-13T04:14:41.264Z,0.00
2018-12-13T04:15:41.257Z,0.00
2018-12-13T04:16:41.243Z,0.00
2018-12-13T04:17:41.258Z,0.00
2018-12-13T04:18:41.232Z,0.00
2018-12-13T04:19:41.210Z,0.00
2018-12-13T04:20:41.199Z,0.00
2018-12-13T04:21:41.190Z,0.00
2018-12-13T04:22:41.192Z,0.00
2018-12-13T04:23:41.184Z,0.00
2018-12-13T04:24:41.158Z,0.00
2018-12-13T04:25:41.148Z,0.00
2018-12-13T04:26:41.136Z,0.00
2018-12-13T04:27:41.140Z,0.00
2018-12-13T04:28:41.117Z,0.00
2018-12-13T04:29:41.112Z,0.00
2018-12-13T04:30:41.099Z,0.00
2018-12-13T04:31:41.087Z,0.00
2018-12-13T04:32:41.089Z,0.00
2018-12-13T04:33:41.063Z,0.00
2018-12-13T04:34:41.054Z,0.00
2018-12-13T04:35:41.063Z,0.00
2018-12-13T04:36:41.033Z,0.00
2018-12-13T04:37:41.056Z,0.00
2018-12-13T04:38:41.016Z,0.00
2018-12-13T04:39:41.010Z,0.00
2018-12-13T04:40:40.998Z,0.00
2018-12-13T04:41:40.992Z,0.00
2018-12-13T04:42:40.988Z,0.00
2018-12-13T04:43:40.963Z,0.00
2018-12-13T04:44:40.951Z,0.00
2018-12-13T04:45:40.943Z,0.00
2018-12-13T04:46:40.936Z,0.00
2018-12-13T04:47:40.953Z,0.00
2018-12-13T04:48:40.910Z,0.00
2018-12-13T04:49:40.900Z,0.00
2018-12-13T04:50:40.893Z,0.00
2018-12-13T04:51:40.885Z,0.00
2018-12-13T04:52:40.896Z,0.00
2018-12-13T04:53:40.877Z,0.00
2018-12-13T04:54:40.846Z,0.00
2018-12-13T04:55:40.836Z,0.00
2018-12-13T04:56:40.828Z,0.00
2018-12-13T04:57:40.816Z,0.00
2018-12-13T04:58:40.821Z,0.00
2018-12-13T04:59:40.814Z,0.00
2018-12-13T05:00:40.786Z,0.00
2018-12-13T05:01:40.779Z,0.00
2018-12-13T05:02:40.764Z,0.00
2018-12-13T05:03:40.769Z,0.00
2018-12-13T05:04:40.744Z,0.00
2018-12-13T05:05:40.743Z,0.00
2018-12-13T05:06:40.725Z,0.00
2018-12-13T05:07:41.859Z,0.00
2018-12-13T05:08:40.718Z,0.00
2018-12-13T05:09:40.691Z,0.00
2018-12-13T05:10:40.681Z,0.00
2018-12-13T05:11:40.691Z,0.00
2018-12-13T05:12:40.661Z,0.00
2018-12-13T05:13:40.667Z,0.00
2018-12-13T05:14:40.640Z,0.00
2018-12-13T05:15:40.632Z,0.00
2018-12-13T05:16:40.620Z,0.00
2018-12-13T05:17:40.625Z,0.00
2018-12-13T05:18:40.616Z,0.00
2018-12-13T05:19:40.590Z,0.00
2018-12-13T05:20:40.578Z,0.00
2018-12-13T05:21:40.571Z,0.00
2018-12-13T05:22:40.562Z,0.00
2018-12-13T05:23:40.573Z,0.00
2018-12-13T05:24:40.536Z,0.00
2018-12-13T05:25:40.539Z,0.00
2018-12-13T05:26:40.516Z,0.00
2018-12-13T05:27:40.527Z,0.00
2018-12-13T05:28:40.511Z,0.00
2018-12-13T05:29:40.502Z,0.00
2018-12-13T05:30:40.476Z,0.00
2018-12-13T05:31:40.463Z,0.00
2018-12-13T05:32:40.454Z,0.00
2018-12-13T05:33:40.459Z,0.00
2018-12-13T05:34:40.433Z,0.00
2018-12-13T05:35:40.431Z,0.00
2018-12-13T05:36:40.417Z,0.00
2018-12-13T05:37:40.401Z,0.00
2018-12-13T05:38:40.406Z,0.00
2018-12-13T05:39:40.387Z,0.00
2018-12-13T05:40:40.371Z,0.00
2018-12-13T05:41:40.370Z,0.00
2018-12-13T05:42:40.350Z,0.00
2018-12-13T05:43:40.373Z,0.00
2018-12-13T05:44:40.332Z,0.00
2018-12-13T05:45:40.321Z,0.00
2018-12-13T05:46:40.310Z,0.00
2018-12-13T05:47:40.319Z,0.00
2018-12-13T05:48:40.307Z,0.00
2018-12-13T05:49:40.279Z,0.00
2018-12-13T05:50:40.271Z,0.00
2018-12-13T05:51:40.257Z,0.00
2018-12-13T05:52:40.247Z,0.00
2018-12-13T05:53:40.274Z,0.00
2018-12-13T05:54:40.227Z,0.00
2018-12-13T05:55:40.220Z,0.00
2018-12-13T05:56:40.206Z,0.00
2018-12-13T05:57:40.199Z,0.00
2018-12-13T05:58:40.202Z,0.00
2018-12-13T05:59:40.205Z,0.00
2018-12-13T06:00:40.166Z,0.00
2018-12-13T06:01:40.155Z,0.00
2018-12-13T06:02:40.145Z,0.00
2018-12-13T06:03:40.230Z,0.00
2018-12-13T06:04:40.124Z,0.00
2018-12-13T06:05:40.113Z,0.00
2018-12-13T06:06:40.118Z,0.00
2018-12-13T06:07:40.093Z,0.00
2018-12-13T06:08:40.097Z,0.00
2018-12-13T06:09:40.074Z,0.00
2018-12-13T06:10:40.061Z,0.00
2018-12-13T06:11:40.052Z,0.00
2018-12-13T06:12:40.064Z,0.00
2018-12-13T06:13:40.045Z,0.00
2018-12-13T06:14:40.021Z,0.00
2018-12-13T06:15:40.010Z,0.00
2018-12-13T06:16:40.002Z,0.00
2018-12-13T06:17:40.975Z,0.00
2018-12-13T06:18:40.022Z,0.00
2018-12-13T06:19:39.970Z,0.00
2018-12-13T06:20:39.962Z,0.00
2018-12-13T06:21:39.948Z,0.00
2018-12-13T06:22:39.940Z,0.00
2018-12-13T06:23:39.944Z,0.00
2018-12-13T06:24:39.940Z,0.00
2018-12-13T06:25:39.907Z,0.00
2018-12-13T06:26:39.898Z,0.00
2018-12-13T06:27:39.888Z,0.00
2018-12-13T06:28:39.913Z,0.00
2018-12-13T06:29:41.874Z,0.00
2018-12-13T06:30:40.854Z,0.00
2018-12-13T06:31:39.854Z,0.00
2018-12-13T06:32:39.836Z,0.00
2018-12-13T06:33:39.827Z,0.00
2018-12-13T06:34:39.826Z,0.00
2018-12-13T06:35:39.805Z,0.00
2018-12-13T06:36:39.796Z,0.00
2018-12-13T06:37:39.793Z,0.00
2018-12-13T06:38:39.791Z,0.00
2018-12-13T06:39:39.764Z,0.00
2018-12-13T06:40:39.751Z,0.00
2018-12-13T06:41:39.742Z,0.00
2018-12-13T06:42:39.733Z,0.00
2018-12-13T06:43:39.760Z,0.00
2018-12-13T06:44:39.712Z,0.00
2018-12-13T06:45:39.704Z,0.00
2018-12-13T06:46:39.688Z,0.00
2018-12-13T06:47:39.678Z,0.00
2018-12-13T06:48:39.681Z,0.00
2018-12-13T06:49:39.662Z,0.00
2018-12-13T06:50:39.668Z,0.00
2018-12-13T06:51:39.636Z,0.00
2018-12-13T06:52:39.624Z,0.00
2018-12-13T06:53:39.655Z,0.00
2018-12-13T06:54:39.606Z,0.00
2018-12-13T06:55:39.610Z,0.00
2018-12-13T06:56:39.584Z,0.00
2018-12-13T06:57:39.573Z,0.00
2018-12-13T06:58:39.562Z,0.00
2018-12-13T06:59:39.565Z,0.00
2018-12-13T07:00:39.541Z,0.00
2018-12-13T07:01:39.545Z,0.00
2018-12-13T07:02:39.522Z,0.00
2018-12-13T07:03:39.512Z,5.62
2018-12-13T07:04:39.519Z,5.62
2018-12-13T07:05:39.490Z,5.62
2018-12-13T07:06:39.478Z,5.62
2018-12-13T07:07:39.494Z,11.25
2018-12-13T07:08:39.456Z,11.25
2018-12-13T07:09:39.461Z,11.25
2018-12-13T07:10:39.439Z,11.25
2018-12-13T07:11:39.428Z,11.25
2018-12-13T07:12:39.418Z,16.88
2018-12-13T07:13:39.419Z,16.88
2018-12-13T07:14:39.411Z,16.88
2018-12-13T07:15:39.387Z,22.50
2018-12-13T07:16:39.376Z,22.50
2018-12-13T07:17:39.365Z,22.50
2018-12-13T07:18:39.352Z,22.50
2018-12-13T07:19:39.373Z,28.12
2018-12-13T07:20:39.338Z,28.12
2018-12-13T07:21:39.330Z,28.12
2018-12-13T07:22:39.312Z,28.12
2018-12-13T07:23:39.301Z,33.75
2018-12-13T07:24:39.314Z,33.75
2018-12-13T07:25:39.283Z,33.75
2018-12-13T07:26:39.297Z,33.75
2018-12-13T07:27:39.262Z,39.38
2018-12-13T07:28:39.247Z,39.38
2018-12-13T07:29:39.255Z,39.38
2018-12-13T07:30:39.234Z,39.38
2018-12-13T07:31:39.215Z,45.00
2018-12-13T07:32:39.218Z,45.00
2018-12-13T07:33:39.194Z,45.00
2018-12-13T07:34:39.198Z,50.62
2018-12-13T07:35:39.175Z,50.62
2018-12-13T07:36:39.164Z,50.62
2018-12-13T07:37:39.158Z,50.62
2018-12-13T07:38:39.230Z,50.62
2018-12-13T07:39:39.148Z,45.00
2018-12-13T07:40:39.124Z,45.00
2018-12-13T07:41:39.113Z,39.38
2018-12-13T07:42:39.103Z,39.38
2018-12-13T07:43:39.091Z,45.00
2018-12-13T07:44:39.120Z,45.00
2018-12-13T07:45:39.069Z,56.25
2018-12-13T07:46:39.065Z,56.25
2018-12-13T07:47:39.049Z,61.88
2018-12-13T07:48:39.039Z,67.50
2018-12-13T07:49:39.049Z,78.75
2018-12-13T07:50:39.043Z,84.38
2018-12-13T07:51:39.015Z,95.62
2018-12-13T07:52:38.997Z,101.25
2018-12-13T07:53:38.995Z,106.88
2018-12-13T07:54:38.993Z,118.12
2018-12-13T07:55:38.968Z,123.75
2018-12-13T07:56:38.969Z,118.12
2018-12-13T07:57:38.951Z,118.12
2018-12-13T07:58:38.934Z,123.75
2018-12-13T07:59:38.937Z,129.38
2018-12-13T08:00:38.918Z,135.00
2018-12-13T08:01:38.905Z,140.62
2018-12-13T08:02:38.914Z,146.25
2018-12-13T08:03:38.883Z,157.50
2018-12-13T08:04:38.884Z,168.75
2018-12-13T08:05:38.865Z,168.75
2018-12-13T08:06:38.849Z,168.75
2018-12-13T08:07:38.839Z,168.75
2018-12-13T08:08:38.835Z,174.38
2018-12-13T08:09:38.832Z,191.25
2018-12-13T08:10:38.808Z,151.88
2018-12-13T08:11:38.798Z,129.38
2018-12-13T08:12:38.787Z,180.00
2018-12-13T08:13:38.777Z,196.88
2018-12-13T08:14:38.782Z,208.12
2018-12-13T08:15:38.759Z,196.88
2018-12-13T08:16:38.747Z,213.75
2018-12-13T08:17:38.737Z,225.00
2018-12-13T08:18:38.727Z,270.00
2018-12-13T08:19:38.731Z,298.12
2018-12-13T08:20:38.719Z,315.00
2018-12-13T08:21:38.701Z,320.62
2018-12-13T08:22:38.682Z,303.75
2018-12-13T08:23:38.674Z,292.50
2018-12-13T08:24:38.673Z,286.88
2018-12-13T08:25:38.651Z,286.88
2018-12-13T08:26:38.638Z,315.00
2018-12-13T08:27:38.655Z,354.38
2018-12-13T08:28:38.623Z,382.50
2018-12-13T08:29:38.623Z,360.00
2018-12-13T08:30:38.600Z,343.12
2018-12-13T08:31:38.587Z,247.50
2018-12-13T08:32:38.590Z,343.12
2018-12-13T08:33:38.565Z,292.50
2018-12-13T08:34:38.573Z,376.88
2018-12-13T08:35:38.546Z,365.62
2018-12-13T08:36:38.534Z,315.00
2018-12-13T08:37:38.524Z,343.12
2018-12-13T08:38:38.530Z,354.38
2018-12-13T08:39:38.514Z,393.75
2018-12-13T08:40:38.497Z,298.12
2018-12-13T08:41:38.478Z,326.25
2018-12-13T08:42:38.469Z,360.00
2018-12-13T08:43:38.457Z,320.62
2018-12-13T08:44:38.468Z,405.00
2018-12-13T08:45:38.437Z,500.62
2018-12-13T08:46:38.427Z,466.88
2018-12-13T08:47:38.416Z,405.00
2018-12-13T08:48:38.406Z,354.38
2018-12-13T08:49:38.407Z,309.38
2018-12-13T08:50:38.389Z,315.00
2018-12-13T08:51:38.375Z,315.00
2018-12-13T08:52:38.367Z,298.12
2018-12-13T08:53:38.350Z,213.75
2018-12-13T08:54:38.354Z,320.62
2018-12-13T08:55:38.333Z,354.38
2018-12-13T08:56:38.327Z,371.25
2018-12-13T08:57:38.309Z,376.88
2018-12-13T08:58:38.299Z,354.38
2018-12-13T08:59:38.300Z,376.88
2018-12-13T09:00:38.275Z,258.75
2018-12-13T09:01:38.264Z,326.25
2018-12-13T09:02:38.261Z,331.88
2018-12-13T09:03:38.244Z,393.75
2018-12-13T09:04:38.258Z,348.75
2018-12-13T09:05:38.224Z,275.62
2018-12-13T09:06:38.212Z,303.75
2018-12-13T09:07:38.201Z,376.88
2018-12-13T09:08:38.198Z,388.12
2018-12-13T09:09:38.179Z,405.00
2018-12-13T09:10:38.190Z,309.38
2018-12-13T09:11:38.158Z,241.88
2018-12-13T09:12:38.150Z,455.62
2018-12-13T09:13:38.137Z,450.00
2018-12-13T09:14:38.131Z,241.88
2018-12-13T09:15:38.134Z,247.50
2018-12-13T09:16:38.107Z,258.75
2018-12-13T09:17:38.096Z,438.75
2018-12-13T09:18:38.084Z,298.12
2018-12-13T09:19:38.076Z,421.88
2018-12-13T09:20:38.123Z,292.50
2018-12-13T09:21:38.054Z,303.75
2018-12-13T09:22:38.042Z,405.00
2018-12-13T09:23:38.032Z,343.12
2018-12-13T09:24:38.020Z,421.88
2018-12-13T09:25:38.024Z,466.88
2018-12-13T09:26:38.010Z,326.25
2018-12-13T09:27:37.989Z,360.00
2018-12-13T09:28:37.978Z,551.25
2018-12-13T09:29:37.968Z,517.50
2018-12-13T09:30:37.974Z,461.25
2018-12-13T09:31:37.945Z,399.38
2018-12-13T09:32:37.951Z,433.12
2018-12-13T09:33:37.926Z,343.12
2018-12-13T09:34:37.914Z,320.62
2018-12-13T09:35:37.920Z,545.62
2018-12-13T09:36:37.901Z,365.62
2018-12-13T09:37:37.882Z,326.25
2018-12-13T09:38:39.997Z,315.00
2018-12-13T09:39:37.859Z,360.00
2018-12-13T09:40:37.907Z,337.50
2018-12-13T09:41:37.840Z,360.00
2018-12-13T09:42:37.828Z,534.38
2018-12-13T09:43:37.818Z,523.12
2018-12-13T09:44:37.824Z,562.50
2018-12-13T09:45:37.810Z,573.75
2018-12-13T09:46:37.783Z,376.88
2018-12-13T09:47:37.774Z,303.75
2018-12-13T09:48:37.762Z,298.12
2018-12-13T09:49:37.752Z,433.12
2018-12-13T09:50:37.775Z,421.88
2018-12-13T09:51:37.730Z,382.50
2018-12-13T09:52:37.720Z,613.12
2018-12-13T09:53:37.721Z,438.75
2018-12-13T09:54:37.704Z,624.38
2018-12-13T09:55:37.709Z,725.62
2018-12-13T09:56:37.681Z,765.00
2018-12-13T09:57:37.664Z,765.00
2018-12-13T09:58:37.655Z,635.62
2018-12-13T09:59:37.643Z,832.50
2018-12-13T10:00:37.647Z,821.25
2018-12-13T10:01:37.621Z,720.00
2018-12-13T10:02:37.617Z,596.25
2018-12-13T10:03:37.601Z,675.00
2018-12-13T10:04:37.590Z,495.00
2018-12-13T10:05:37.597Z,652.50
2018-12-13T10:06:37.568Z,810.00
2018-12-13T10:07:37.558Z,860.62
2018-12-13T10:08:37.550Z,866.25
2018-12-13T10:09:37.536Z,905.62
2018-12-13T10:10:37.540Z,900.00
2018-12-13T10:11:37.514Z,916.88
2018-12-13T10:12:37.503Z,916.88
2018-12-13T10:13:37.492Z,877.50
2018-12-13T10:14:37.485Z,838.12
2018-12-13T10:15:37.486Z,843.75
2018-12-13T10:16:37.459Z,843.75
2018-12-13T10:17:37.448Z,849.38
2018-12-13T10:18:37.438Z,860.62
2018-12-13T10:19:37.428Z,871.88
2018-12-13T10:20:37.434Z,894.38
2018-12-13T10:21:37.409Z,933.75
2018-12-13T10:22:37.393Z,877.50
2018-12-13T10:23:37.381Z,714.38
2018-12-13T10:24:37.370Z,781.88
2018-12-13T10:25:37.379Z,871.88
2018-12-13T10:26:37.351Z,855.00
2018-12-13T10:27:37.342Z,376.88
2018-12-13T10:28:37.331Z,860.62
2018-12-13T10:29:37.319Z,708.75
2018-12-13T10:30:37.321Z,421.88
2018-12-13T10:31:37.295Z,382.50
2018-12-13T10:32:37.285Z,568.12
2018-12-13T10:33:37.275Z,922.50
2018-12-13T10:34:37.266Z,945.00
2018-12-13T10:35:37.281Z,826.88
2018-12-13T10:36:37.241Z,534.38
2018-12-13T10:37:37.229Z,472.50
2018-12-13T10:38:37.222Z,961.88
2018-12-13T10:39:37.213Z,995.62
2018-12-13T10:40:37.220Z,787.50
2018-12-13T10:41:37.202Z,568.12
2018-12-13T10:42:37.174Z,500.62
2018-12-13T10:43:37.167Z,506.25
2018-12-13T10:44:37.152Z,517.50
2018-12-13T10:45:37.157Z,455.62
2018-12-13T10:46:37.130Z,444.38
2018-12-13T10:47:37.125Z,444.38
2018-12-13T10:48:37.109Z,506.25
2018-12-13T10:49:37.108Z,433.12
2018-12-13T10:50:37.104Z,466.88
2018-12-13T10:51:37.075Z,489.38
2018-12-13T10:52:37.065Z,545.62
2018-12-13T10:53:37.063Z,596.25
2018-12-13T10:54:37.044Z,540.00
2018-12-13T10:55:37.310Z,534.38
2018-12-13T10:56:37.021Z,534.38
2018-12-13T10:57:37.012Z,601.88
2018-12-13T10:58:37.001Z,973.12
2018-12-13T10:59:36.996Z,1006.88
2018-12-13T11:00:36.991Z,832.50
2018-12-13T11:01:36.968Z,635.62
2018-12-13T11:02:36.956Z,1170.00
2018-12-13T11:03:36.945Z,568.12
2018-12-13T11:04:36.934Z,540.00
2018-12-13T11:05:36.947Z,506.25
2018-12-13T11:06:36.911Z,472.50
2018-12-13T11:07:36.903Z,455.62
2018-12-13T11:08:36.893Z,466.88
2018-12-13T11:09:36.879Z,472.50
2018-12-13T11:10:36.884Z,478.12
2018-12-13T11:11:36.866Z,489.38
2018-12-13T11:12:36.847Z,517.50
2018-12-13T11:13:36.837Z,500.62
2018-12-13T11:14:36.827Z,466.88
2018-12-13T11:15:36.827Z,421.88
2018-12-13T11:16:36.805Z,388.12
2018-12-13T11:17:36.799Z,360.00
2018-12-13T11:18:36.794Z,320.62
2018-12-13T11:19:36.771Z,298.12
2018-12-13T11:20:36.787Z,286.88
2018-12-13T11:21:36.753Z,292.50
2018-12-13T11:22:36.739Z,315.00
2018-12-13T11:23:36.730Z,331.88
2018-12-13T11:24:36.725Z,348.75
2018-12-13T11:25:36.706Z,354.38
2018-12-13T11:26:36.709Z,337.50
2018-12-13T11:27:36.684Z,303.75
2018-12-13T11:28:36.673Z,275.62
2018-12-13T11:29:36.663Z,258.75
2018-12-13T11:30:36.663Z,230.62
2018-12-13T11:31:36.658Z,208.12
2018-12-13T11:32:36.631Z,191.25
2018-12-13T11:33:36.621Z,174.38
2018-12-13T11:34:36.623Z,163.12
2018-12-13T11:35:36.598Z,157.50
2018-12-13T11:36:36.612Z,151.88
2018-12-13T11:37:36.578Z,151.88
2018-12-13T11:38:36.566Z,157.50
2018-12-13T11:39:36.555Z,157.50
2018-12-13T11:40:36.544Z,151.88
2018-12-13T11:41:36.546Z,146.25
2018-12-13T11:42:36.532Z,140.62
2018-12-13T11:43:36.513Z,140.62
2018-12-13T11:44:36.502Z,146.25
2018-12-13T11:45:36.507Z,151.88
2018-12-13T11:46:36.497Z,163.12
2018-12-13T11:47:36.469Z,168.75
2018-12-13T11:48:36.467Z,174.38
2018-12-13T11:49:36.449Z,174.38
2018-12-13T11:50:36.437Z,174.38
2018-12-13T11:51:36.440Z,174.38
2018-12-13T11:52:36.419Z,180.00
2018-12-13T11:53:36.407Z,191.25
2018-12-13T11:54:36.403Z,196.88
2018-12-13T11:55:36.386Z,202.50
2018-12-13T11:56:36.408Z,196.88
2018-12-13T11:57:36.364Z,185.62
2018-12-13T11:58:36.353Z,180.00
2018-12-13T11:59:36.342Z,180.00
2018-12-13T12:00:36.331Z,180.00
2018-12-13T12:01:36.334Z,185.62
2018-12-13T12:02:36.316Z,202.50
2018-12-13T12:03:36.299Z,202.50
2018-12-13T12:04:36.289Z,202.50
2018-12-13T12:05:36.278Z,196.88
2018-12-13T12:06:36.284Z,191.25
2018-12-13T12:07:36.258Z,196.88
2018-12-13T12:08:36.255Z,202.50
2018-12-13T12:09:36.236Z,208.12
2018-12-13T12:10:36.227Z,196.88
2018-12-13T12:11:36.231Z,185.62
2018-12-13T12:12:36.204Z,174.38
2018-12-13T12:13:36.193Z,157.50
2018-12-13T12:14:36.197Z,146.25
2018-12-13T12:15:36.185Z,135.00
2018-12-13T12:16:36.179Z,129.38
2018-12-13T12:17:36.151Z,123.75
2018-12-13T12:18:36.141Z,118.12
2018-12-13T12:19:36.134Z,112.50
2018-12-13T12:20:36.128Z,106.88
2018-12-13T12:21:36.124Z,101.25
2018-12-13T12:22:36.099Z,90.00
2018-12-13T12:23:36.087Z,90.00
2018-12-13T12:24:36.075Z,84.38
2018-12-13T12:25:36.066Z,84.38
2018-12-13T12:26:36.083Z,84.38
2018-12-13T12:27:36.043Z,90.00
2018-12-13T12:28:36.035Z,101.25
2018-12-13T12:29:36.023Z,106.88
2018-12-13T12:30:36.011Z,106.88
2018-12-13T12:31:36.017Z,112.50
2018-12-13T12:32:36.012Z,118.12
2018-12-13T12:33:35.980Z,129.38
2018-12-13T12:34:35.973Z,135.00
2018-12-13T12:35:35.958Z,135.00
2018-12-13T12:36:35.951Z,135.00
2018-12-13T12:37:35.949Z,129.38
2018-12-13T12:38:35.946Z,123.75
2018-12-13T12:39:35.915Z,118.12
2018-12-13T12:40:35.907Z,118.12
2018-12-13T12:41:35.895Z,106.88
2018-12-13T12:42:35.900Z,101.25
2018-12-13T12:43:35.877Z,101.25
2018-12-13T12:44:35.876Z,106.88
2018-12-13T12:45:35.853Z,106.88
2018-12-13T12:46:35.842Z,112.50
2018-12-13T12:47:35.846Z,118.12
2018-12-13T12:48:35.819Z,118.12
2018-12-13T12:49:35.809Z,118.12
2018-12-13T12:50:35.807Z,118.12
2018-12-13T12:51:35.798Z,118.12
2018-12-13T12:52:35.791Z,118.12
2018-12-13T12:53:35.766Z,112.50
2018-12-13T12:54:35.761Z,101.25
2018-12-13T12:55:35.744Z,101.25
2018-12-13T12:56:35.743Z,95.62